Time;durP1;ratioP1;P1;durP2;ratioP2;P2;SDS_P1;SDS_P2;PMS_P1;PMS_P2;Temp;Humidity;BMP_temperature;BMP_pressure;BME280_temperature;BME280_humidity;BME280_pressure;Samples;Min_cycle;Max_cycle;Signal;HPM_P1;HPM_P2
2022/11/02 00:01:42;;;;;;;13.13;2.47;;;12.90;99.90;;;;;;5073416;28;20087;-77
2022/11/02 00:04:08;;;;;;;10.43;2.40;;;12.90;99.90;;;;;;5073197;28;20282;-77
2022/11/02 00:06:34;;;;;;;8.30;1.97;;;12.90;99.90;;;;;;5072752;28;20287;-77
2022/11/02 00:08:59;;;;;;;12.83;2.53;;;12.90;99.90;;;;;;5072927;28;20305;-77
2022/11/02 00:11:25;;;;;;;10.63;2.67;;;12.80;99.90;;;;;;5073268;28;20040;-76
2022/11/02 00:13:52;;;;;;;12.27;2.70;;;12.80;99.90;;;;;;5073286;28;20093;-76
2022/11/02 00:16:19;;;;;;;14.70;2.60;;;12.80;99.90;;;;;;5073061;28;20079;-76
2022/11/02 00:18:49;;;;;;;9.90;2.23;;;12.70;99.90;;;;;;5073144;28;20366;-77
2022/11/02 00:21:17;;;;;;;16.07;2.20;;;12.70;99.90;;;;;;5072949;28;20278;-77
2022/11/02 00:23:44;;;;;;;12.43;2.30;;;12.60;99.90;;;;;;5071924;28;20681;-76
2022/11/02 00:26:11;;;;;;;9.27;2.10;;;12.60;99.90;;;;;;5072816;28;20290;-77
2022/11/02 00:28:36;;;;;;;8.67;1.77;;;12.50;99.90;;;;;;5073042;28;20298;-77
2022/11/02 00:31:02;;;;;;;10.27;2.10;;;12.50;99.90;;;;;;5072641;28;20320;-76
2022/11/02 00:33:28;;;;;;;9.67;2.50;;;12.40;99.90;;;;;;5073035;28;20102;-77
2022/11/02 00:35:54;;;;;;;7.00;2.10;;;12.40;99.90;;;;;;5073027;28;20048;-77
2022/11/02 00:38:20;;;;;;;8.97;2.50;;;12.30;99.90;;;;;;5072811;28;20045;-76
2022/11/02 00:40:46;;;;;;;9.90;2.00;;;12.30;99.90;;;;;;5073088;28;20289;-76
2022/11/02 00:43:11;;;;;;;7.97;2.03;;;12.30;99.90;;;;;;5071528;28;20476;-76
2022/11/02 00:45:37;;;;;;;8.30;1.87;;;12.30;99.90;;;;;;5072046;28;20048;-76
2022/11/02 00:48:03;;;;;;;9.20;2.17;;;12.30;99.90;;;;;;5072615;28;20041;-76
2022/11/02 00:50:29;;;;;;;8.17;1.93;;;12.20;99.90;;;;;;5072927;28;20079;-76
2022/11/02 00:52:55;;;;;;;6.93;1.67;;;12.20;99.90;;;;;;5072889;28;20293;-76
2022/11/02 00:55:21;;;;;;;10.90;2.43;;;12.10;99.90;;;;;;5072296;28;20286;-76
2022/11/02 00:57:47;;;;;;;8.23;2.10;;;12.10;99.90;;;;;;5072871;28;20041;-76
2022/11/02 01:00:13;;;;;;;7.17;1.90;;;12.10;99.90;;;;;;5072572;28;20048;-76
2022/11/02 01:02:40;;;;;;;9.23;1.50;;;12.10;99.90;;;;;;5072839;28;20052;-76
2022/11/02 01:05:07;;;;;;;3.67;1.10;;;12.10;99.90;;;;;;5072485;28;20353;-76
2022/11/02 01:07:32;;;;;;;5.40;1.67;;;12.10;99.90;;;;;;5072010;28;20371;-76
2022/11/02 01:09:58;;;;;;;6.50;1.63;;;12.00;99.90;;;;;;5072726;28;20819;-76
2022/11/02 01:12:24;;;;;;;4.30;1.40;;;12.00;99.90;;;;;;5072359;28;20054;-76
2022/11/02 01:14:50;;;;;;;7.57;1.57;;;12.00;99.90;;;;;;5072654;28;20109;-76
2022/11/02 01:17:17;;;;;;;8.37;1.90;;;12.00;99.90;;;;;;5072343;28;20284;-76
2022/11/02 01:19:43;;;;;;;6.53;1.23;;;12.00;99.90;;;;;;5074799;28;20454;-76
2022/11/02 01:22:09;;;;;;;4.90;1.40;;;12.00;99.90;;;;;;5076004;28;20295;-75
2022/11/02 01:24:34;;;;;;;7.60;2.17;;;12.00;99.90;;;;;;5076272;28;20080;-75
2022/11/02 01:27:00;;;;;;;6.93;1.60;;;11.90;99.90;;;;;;5076438;28;20045;-76
2022/11/02 01:29:26;;;;;;;7.57;1.40;;;11.90;99.90;;;;;;5074710;28;20388;-76
2022/11/02 01:31:52;;;;;;;5.70;1.20;;;11.90;99.90;;;;;;5076309;28;20060;-76
2022/11/02 01:34:19;;;;;;;3.60;1.00;;;11.90;99.90;;;;;;5074851;28;20041;-75
2022/11/02 01:36:47;;;;;;;8.00;1.30;;;11.90;99.90;;;;;;5076086;28;20358;-75
2022/11/02 01:39:14;;;;;;;4.47;1.10;;;12.00;99.90;;;;;;5074933;28;20356;-76
2022/11/02 01:41:40;;;;;;;7.33;1.50;;;12.00;99.90;;;;;;5075040;28;20297;-75
2022/11/02 01:44:33;;;;;;;4.93;1.20;;;12.00;99.90;;;;;;5074558;28;20315;-75
2022/11/02 01:47:12;;;;;;;4.83;1.50;;;12.00;99.90;;;;;;5076148;28;20283;-75
2022/11/02 01:49:42;;;;;;;5.00;1.50;;;12.00;99.90;;;;;;5075947;28;20341;-75
2022/11/02 01:52:16;;;;;;;6.97;1.47;;;12.00;99.90;;;;;;5075522;28;20279;-75
2022/11/02 01:54:57;;;;;;;4.10;0.90;;;11.90;99.90;;;;;;5075795;28;20354;-75
2022/11/02 01:57:24;;;;;;;4.47;0.97;;;11.80;99.90;;;;;;5075564;28;20271;-75
2022/11/02 01:59:56;;;;;;;3.20;0.90;;;11.80;99.90;;;;;;5074672;28;20282;-75
2022/11/02 02:02:24;;;;;;;2.40;0.80;;;11.70;99.90;;;;;;5074182;28;20348;-75
2022/11/02 02:05:01;;;;;;;3.07;0.83;;;11.70;99.90;;;;;;5075762;28;20295;-75
2022/11/02 02:07:27;;;;;;;4.30;0.97;;;11.70;99.90;;;;;;5075244;28;20333;-75
2022/11/02 02:09:54;;;;;;;2.30;0.87;;;11.60;99.90;;;;;;5075478;28;20287;-75
2022/11/02 02:12:20;;;;;;;3.23;0.97;;;11.50;99.90;;;;;;5074235;28;20865;-76
2022/11/02 02:14:46;;;;;;;4.47;1.20;;;11.50;99.90;;;;;;5074236;28;20294;-75
2022/11/02 02:17:32;;;;;;;3.50;1.20;;;11.50;99.90;;;;;;5075048;28;20282;-76
2022/11/02 02:20:05;;;;;;;6.63;1.57;;;11.40;99.90;;;;;;5063434;28;20060;-75
2022/11/02 02:23:24;;;;;;;4.00;1.23;;;11.50;99.90;;;;;;5074953;28;20321;-76
2022/11/02 02:26:13;;;;;;;5.43;1.33;;;11.50;99.90;;;;;;5032996;28;20331;-75
2022/11/02 02:29:03;;;;;;;5.87;1.67;;;11.50;99.90;;;;;;5075064;28;20303;-75
2022/11/02 02:31:42;;;;;;;6.50;1.50;;;11.50;99.90;;;;;;5073999;28;20291;-75
2022/11/02 02:34:17;;;;;;;4.93;1.70;;;11.50;99.90;;;;;;5075071;28;20279;-75
2022/11/02 02:36:56;;;;;;;6.40;1.73;;;11.50;99.90;;;;;;5075101;28;20287;-75
2022/11/02 02:39:48;;;;;;;9.10;1.67;;;11.50;99.90;;;;;;5074441;28;20048;-75
2022/11/02 02:42:28;;;;;;;6.30;1.80;;;11.50;99.90;;;;;;5073840;28;20309;-75
2022/11/02 02:45:13;;;;;;;6.67;1.80;;;11.50;99.90;;;;;;5075177;28;20627;-75
2022/11/02 02:47:49;;;;;;;4.60;1.42;;;11.50;99.90;;;;;;5073588;28;20317;-75
2022/11/02 02:50:23;;;;;;;6.53;1.47;;;11.50;99.90;;;;;;5074665;28;20049;-75
2022/11/02 02:52:51;;;;;;;7.20;1.53;;;11.50;99.90;;;;;;5074708;28;20278;-76
2022/11/02 02:55:26;;;;;;;5.53;1.40;;;11.50;99.90;;;;;;5073195;28;20742;-76
2022/11/02 02:57:53;;;;;;;;;;;11.50;99.90;;;;;;5074009;28;20361;-75
2022/11/02 03:00:19;;;;;;;4.53;1.17;;;11.50;99.90;;;;;;5074191;28;19920;-76
2022/11/02 03:03:01;;;;;;;6.90;1.40;;;11.40;99.90;;;;;;5074425;28;20329;-75
2022/11/02 03:05:34;;;;;;;4.90;1.20;;;11.40;99.90;;;;;;5074201;28;20055;-76
2022/11/02 03:08:12;;;;;;;6.00;1.40;;;11.40;99.90;;;;;;5074322;28;20295;-75
2022/11/02 03:11:06;;;;;;;8.87;1.17;;;11.40;99.90;;;;;;5074357;28;20297;-76
2022/11/02 03:13:44;;;;;;;5.10;0.90;;;11.40;99.90;;;;;;5074030;28;20623;-76
2022/11/02 03:16:39;;;;;;;7.53;1.70;;;11.40;99.90;;;;;;5074422;28;20639;-76
2022/11/02 03:19:33;;;;;;;6.30;1.70;;;11.40;99.90;;;;;;5068430;28;20291;-76
2022/11/02 03:22:04;;;;;;;3.73;0.80;;;11.40;99.90;;;;;;5074129;28;20283;-76
2022/11/02 03:24:48;;;;;;;4.97;0.97;;;11.30;99.90;;;;;;5073787;28;20287;-76
2022/11/02 03:27:19;;;;;;;6.47;1.57;;;11.30;99.90;;;;;;5074046;28;20332;-76
2022/11/02 03:29:45;;;;;;;7.67;1.80;;;11.30;99.90;;;;;;5072656;28;20369;-76
2022/11/02 03:32:34;;;;;;;5.07;1.20;;;11.30;99.90;;;;;;5073835;28;20330;-76
2022/11/02 03:35:05;;;;;;;5.87;1.10;;;11.20;99.90;;;;;;5074049;28;20048;-76
2022/11/02 03:37:48;;;;;;;5.50;1.40;;;11.20;99.90;;;;;;5073609;28;20670;-76
2022/11/02 03:40:19;;;;;;;9.73;1.40;;;11.20;99.90;;;;;;5073860;28;20297;-76
2022/11/02 03:42:47;;;;;;;9.17;2.03;;;11.10;99.90;;;;;;5073017;28;20271;-77
2022/11/02 03:45:22;;;;;;;5.57;1.30;;;11.20;99.90;;;;;;5073718;28;20275;-76
2022/11/02 03:47:54;;;;;;;8.25;1.52;;;11.20;99.90;;;;;;5073901;28;20376;-76
2022/11/02 03:50:22;;;;;;;11.13;1.70;;;11.10;99.90;;;;;;5072436;28;20187;-76
2022/11/02 03:52:54;;;;;;;7.97;1.73;;;11.10;99.90;;;;;;5073557;28;20326;-76
2022/11/02 03:55:34;;;;;;;8.33;1.80;;;11.00;99.90;;;;;;5073399;28;20274;-76
2022/11/02 03:58:00;;;;;;;13.47;1.77;;;11.00;99.90;;;;;;5073752;28;20346;-76
2022/11/02 04:00:29;;;;;;;9.07;1.90;;;11.00;99.90;;;;;;5072084;28;20696;-76
2022/11/02 04:02:59;;;;;;;10.73;1.83;;;11.10;99.90;;;;;;5073666;28;20044;-76
2022/11/02 04:05:30;;;;;;;14.67;2.83;;;11.10;99.90;;;;;;5073057;28;20278;-76
2022/11/02 04:14:36;;;;;;;8.43;2.00;;;11.10;99.90;;;;;;5073049;28;20279;-76
2022/11/02 04:16:12;;;;;;;13.10;2.40;;;11.20;99.90;;;;;;5073073;28;20279;-76
2022/11/02 04:21:22;;;;;;;12.53;1.97;;;11.30;99.90;;;;;;5072942;28;20315;-76
2022/11/02 04:26:32;;;;;;;10.10;1.83;;;11.30;99.90;;;;;;5072845;28;20048;-76
2022/11/02 04:28:58;;;;;;;13.70;2.03;;;11.30;99.90;;;;;;5073060;28;20298;-75
2022/11/02 04:31:24;;;;;;;11.33;2.00;;;11.40;99.90;;;;;;5071478;28;20504;-75
2022/11/02 04:33:49;;;;;;;14.00;1.97;;;11.40;99.90;;;;;;5072792;28;20067;-75
2022/11/02 04:36:15;;;;;;;11.93;2.27;;;11.30;99.90;;;;;;5071894;28;20041;-75
2022/11/02 04:38:41;;;;;;;11.43;2.77;;;11.30;99.90;;;;;;5072729;28;20469;-75
2022/11/02 04:43:59;;;;;;;11.07;1.80;;;11.30;99.90;;;;;;5072890;28;20484;-76
2022/11/02 04:46:28;;;;;;;11.20;2.13;;;11.30;99.90;;;;;;5072666;28;20281;-76
2022/11/02 04:48:54;;;;;;;11.07;2.60;;;11.30;99.90;;;;;;5072858;28;20481;-75
2022/11/02 04:51:20;;;;;;;12.00;2.10;;;11.30;99.90;;;;;;5072875;28;20283;-75
2022/11/02 04:53:50;;;;;;;9.50;2.00;;;11.30;99.90;;;;;;5074006;28;20443;-75
2022/11/02 04:56:16;;;;;;;10.70;2.00;;;11.30;99.90;;;;;;5076920;28;20335;-75
2022/11/02 04:58:41;;;;;;;9.10;2.00;;;11.30;99.90;;;;;;5076602;28;20275;-75
2022/11/02 05:01:12;;;;;;;13.83;2.60;;;11.30;99.90;;;;;;5076786;28;20041;-75
2022/11/02 05:03:38;;;;;;;11.53;2.90;;;11.30;99.90;;;;;;5076603;28;20036;-75
2022/11/02 05:06:05;;;;;;;9.57;2.47;;;11.30;99.90;;;;;;5076681;28;20816;-75
2022/11/02 05:08:31;;;;;;;8.80;2.20;;;11.30;99.90;;;;;;5076223;28;20039;-75
2022/11/02 05:10:57;;;;;;;11.50;2.53;;;11.20;99.90;;;;;;5076665;28;20282;-75
2022/11/02 05:13:24;;;;;;;9.63;2.10;;;11.20;99.90;;;;;;5075363;28;20063;-75
2022/11/02 05:15:50;;;;;;;11.67;2.70;;;11.20;99.90;;;;;;5076176;28;20278;-75
2022/11/02 05:18:16;;;;;;;11.53;2.40;;;11.10;99.90;;;;;;5076545;28;20324;-75
2022/11/02 05:20:48;;;;;;;10.43;3.10;;;11.10;99.90;;;;;;5076004;28;20832;-75
2022/11/02 05:23:13;;;;;;;9.60;2.63;;;11.10;99.90;;;;;;5075654;28;20071;-75
2022/11/02 05:25:39;;;;;;;8.17;2.00;;;11.10;99.90;;;;;;5058431;28;20283;-76
2022/11/02 05:28:05;;;;;;;10.30;2.70;;;11.20;99.90;;;;;;5076127;28;20044;-76
2022/11/02 05:30:30;;;;;;;13.57;2.70;;;11.20;99.90;;;;;;5076018;28;20547;-76
2022/11/02 05:32:56;;;;;;;16.87;2.40;;;11.20;99.90;;;;;;5075978;28;20060;-76
2022/11/02 05:35:22;;;;;;;13.03;2.27;;;11.20;99.90;;;;;;5075197;28;20052;-76
2022/11/02 05:37:48;;;;;;;12.63;2.40;;;11.30;99.90;;;;;;5075876;28;20400;-76
2022/11/02 05:40:13;;;;;;;12.63;2.77;;;11.30;99.90;;;;;;5075100;28;20045;-76
2022/11/02 05:42:39;;;;;;;18.33;2.70;;;11.30;99.90;;;;;;5075751;28;20435;-76
2022/11/02 05:45:05;;;;;;;9.63;2.47;;;11.30;99.90;;;;;;5076101;28;20044;-76
2022/11/02 05:47:33;;;;;;;10.07;2.20;;;11.30;99.90;;;;;;5075727;28;20056;-76
2022/11/02 05:49:58;;;;;;;12.50;2.63;;;11.30;99.90;;;;;;5076223;28;20274;-76
2022/11/02 05:52:24;;;;;;;11.23;2.30;;;11.30;99.90;;;;;;5075944;28;20375;-75
2022/11/02 05:54:49;;;;;;;13.10;2.40;;;11.30;99.90;;;;;;5075177;28;20056;-76
2022/11/02 05:57:16;;;;;;;11.07;2.27;;;11.30;99.90;;;;;;5075753;28;20089;-76
2022/11/02 05:59:42;;;;;;;11.93;2.60;;;11.30;99.90;;;;;;5074947;28;20374;-76
2022/11/02 06:02:07;;;;;;;12.90;2.33;;;11.30;99.90;;;;;;5074637;28;20289;-76
2022/11/02 06:04:33;;;;;;;11.50;2.23;;;11.30;99.90;;;;;;5074615;28;20565;-76
2022/11/02 06:06:58;;;;;;;14.93;2.63;;;11.40;99.90;;;;;;5075557;28;20404;-76
2022/11/02 06:09:24;;;;;;;17.87;2.87;;;11.40;99.90;;;;;;5075525;28;20101;-75
2022/11/02 06:11:50;;;;;;;14.83;2.67;;;11.40;99.90;;;;;;5075072;28;20599;-76
2022/11/02 06:14:15;;;;;;;19.07;3.37;;;11.40;99.90;;;;;;5075362;28;20499;-75
2022/11/02 06:16:41;;;;;;;13.63;2.60;;;11.40;99.90;;;;;;5074909;28;20055;-75
2022/11/02 06:19:07;;;;;;;13.93;2.70;;;11.40;99.90;;;;;;5075262;28;20041;-75
2022/11/02 06:21:32;;;;;;;15.70;2.60;;;11.40;99.90;;;;;;5075417;28;20088;-75
2022/11/02 06:23:58;;;;;;;14.23;2.47;;;11.40;99.90;;;;;;5074969;28;20133;-75
2022/11/02 06:26:24;;;;;;;15.83;2.53;;;11.40;99.90;;;;;;5075163;28;20051;-75
2022/11/02 06:28:49;;;;;;;13.07;2.30;;;11.40;99.90;;;;;;5074767;28;20044;-76
2022/11/02 06:31:16;;;;;;;12.73;2.60;;;11.40;99.90;;;;;;5074815;28;20040;-75
2022/11/02 06:33:43;;;;;;;11.27;2.63;;;11.40;99.90;;;;;;5073853;28;20053;-76
2022/11/02 06:36:09;;;;;;;10.97;2.23;;;11.40;99.90;;;;;;5073812;28;20278;-76
2022/11/02 06:38:34;;;;;;;12.57;2.30;;;11.40;99.90;;;;;;5074878;28;20670;-75
2022/11/02 06:41:03;;;;;;;16.53;2.30;;;11.40;99.90;;;;;;5074639;28;20040;-76
2022/11/02 06:43:29;;;;;;;14.47;2.77;;;11.40;99.90;;;;;;5075059;28;20044;-75
2022/11/02 06:45:56;;;;;;;15.07;3.13;;;11.40;99.90;;;;;;5074557;28;20281;-75
2022/11/02 06:48:22;;;;;;;10.33;2.27;;;11.40;99.90;;;;;;5074676;28;20302;-75
2022/11/02 06:50:48;;;;;;;11.63;2.30;;;11.40;99.90;;;;;;5074467;28;20369;-75
2022/11/02 06:53:13;;;;;;;13.43;2.50;;;11.40;99.90;;;;;;5073983;28;20699;-75
2022/11/02 06:55:39;;;;;;;13.10;2.93;;;11.50;99.90;;;;;;5074339;28;20044;-78
2022/11/02 06:58:05;;;;;;;16.80;3.17;;;11.50;99.90;;;;;;5074617;28;20058;-78
2022/11/02 07:00:31;;;;;;;9.87;2.57;;;11.50;99.90;;;;;;5074483;28;20071;-77
2022/11/02 07:03:04;;;;;;;15.20;2.60;;;11.50;99.90;;;;;;5073008;28;20127;-76
2022/11/02 07:05:30;;;;;;;11.93;2.27;;;11.50;99.90;;;;;;5074421;28;20052;-76
2022/11/02 07:07:56;;;;;;;11.47;1.77;;;11.50;99.90;;;;;;5073973;28;20302;-76
2022/11/02 07:10:23;;;;;;;13.40;2.60;;;11.50;99.90;;;;;;5056949;28;20596;-76
2022/11/02 07:12:52;;;;;;;11.63;2.37;;;11.50;99.90;;;;;;5074102;28;20600;-75
2022/11/02 07:15:19;;;;;;;11.10;2.20;;;11.40;99.90;;;;;;5074193;28;20638;-77
2022/11/02 07:17:44;;;;;;;12.17;1.93;;;11.40;99.90;;;;;;5073923;28;20291;-77
2022/11/02 07:20:10;;;;;;;7.60;2.10;;;11.40;99.90;;;;;;5074109;28;20785;-77
2022/11/02 07:22:36;;;;;;;10.50;2.20;;;11.40;99.90;;;;;;5074095;28;20051;-76
2022/11/02 07:25:02;;;;;;;9.70;1.90;;;11.30;99.90;;;;;;5073456;28;20053;-75
2022/11/02 07:27:28;;;;;;;10.07;1.77;;;11.30;99.90;;;;;;5072978;28;20759;-74
2022/11/02 07:29:53;;;;;;;9.87;2.10;;;11.30;99.90;;;;;;5073343;28;20302;-74
2022/11/02 07:32:19;;;;;;;9.77;2.00;;;11.30;99.90;;;;;;5072689;28;20067;-75
2022/11/02 07:34:45;;;;;;;9.37;1.90;;;11.20;99.90;;;;;;5073564;28;20060;-75
2022/11/02 07:37:11;;;;;;;6.43;1.40;;;11.20;99.90;;;;;;5072772;28;20056;-75
2022/11/02 07:39:36;;;;;;;7.77;2.07;;;11.20;99.90;;;;;;5073723;28;20089;-75
2022/11/02 07:42:02;;;;;;;6.30;1.53;;;11.20;99.90;;;;;;5073483;28;20051;-74
2022/11/02 07:44:29;;;;;;;8.53;2.10;;;11.20;99.90;;;;;;5073676;28;20095;-74
2022/11/02 07:46:55;;;;;;;9.17;2.13;;;11.20;99.90;;;;;;5072146;28;20052;-74
2022/11/02 07:49:21;;;;;;;6.20;1.47;;;11.10;99.90;;;;;;5073477;28;20302;-75
2022/11/02 07:51:47;;;;;;;9.47;2.63;;;11.20;99.90;;;;;;5073385;28;20054;-75
2022/11/02 07:54:12;;;;;;;9.90;2.07;;;11.20;99.90;;;;;;5073521;28;20055;-73
2022/11/02 07:56:38;;;;;;;12.90;3.00;;;11.30;99.90;;;;;;5073706;28;20127;-76
2022/11/02 07:59:03;;;;;;;9.80;2.10;;;11.30;99.90;;;;;;5073199;28;20489;-77
2022/11/02 08:01:29;;;;;;;10.30;2.20;;;11.40;99.90;;;;;;5073139;28;20137;-78
2022/11/02 08:03:55;;;;;;;11.23;1.93;;;11.40;99.90;;;;;;5053059;28;20052;-72
2022/11/02 08:06:21;;;;;;;11.43;2.30;;;11.40;99.90;;;;;;5053434;28;20492;-73
2022/11/02 08:08:47;;;;;;;10.17;2.13;;;11.50;99.90;;;;;;5052930;28;20300;-74
2022/11/02 08:11:12;;;;;;;13.87;2.43;;;11.50;99.90;;;;;;5053034;28;20060;-74
2022/11/02 08:13:38;;;;;;;10.53;3.60;;;11.50;99.90;;;;;;5052195;28;20047;-74
2022/11/02 08:16:04;;;;;;;12.20;2.57;;;11.50;99.90;;;;;;5052956;28;20041;-74
2022/11/02 08:18:31;;;;;;;10.53;2.60;;;11.50;99.90;;;;;;5053335;28;20424;-74
2022/11/02 08:20:58;;;;;;;10.50;2.33;;;11.60;99.90;;;;;;5052861;28;20053;-74
2022/11/02 08:23:25;;;;;;;13.87;2.33;;;11.60;99.90;;;;;;5052821;28;20771;-75
2022/11/02 08:25:52;;;;;;;15.40;2.60;;;11.60;99.90;;;;;;5052795;28;20287;-74
2022/11/02 08:28:21;;;;;;;14.97;2.50;;;11.60;99.90;;;;;;5052460;28;20794;-75
2022/11/02 08:30:47;;;;;;;12.17;2.80;;;11.60;99.90;;;;;;5053079;28;20268;-74
2022/11/02 08:33:15;;;;;;;17.77;3.03;;;11.60;99.90;;;;;;5052970;28;20306;-75
2022/11/02 08:35:42;;;;;;;14.57;2.57;;;11.50;99.90;;;;;;5052944;28;20052;-75
2022/11/02 08:38:08;;;;;;;9.13;2.20;;;11.50;99.90;;;;;;5052721;28;20290;-75
2022/11/02 08:40:35;;;;;;;12.67;2.27;;;11.50;99.90;;;;;;5052963;28;20333;-75
2022/11/02 08:43:06;;;;;;;11.50;3.40;;;11.60;99.90;;;;;;5052508;28;20276;-74
2022/11/02 08:45:34;;;;;;;15.43;2.30;;;11.70;99.90;;;;;;5052913;28;20275;-74
2022/11/02 08:48:00;;;;;;;12.10;2.17;;;11.80;99.90;;;;;;5052215;28;20783;-75
2022/11/02 08:50:26;;;;;;;11.77;2.80;;;11.90;99.90;;;;;;5052835;28;20333;-74
2022/11/02 08:52:52;;;;;;;12.70;2.27;;;11.90;99.90;;;;;;5052542;28;20063;-74
2022/11/02 08:55:18;;;;;;;14.77;2.40;;;11.90;99.90;;;;;;5052518;28;20782;-74
2022/11/02 08:57:44;;;;;;;13.37;2.37;;;11.90;99.90;;;;;;5052878;28;20280;-75
2022/11/02 09:00:11;;;;;;;17.07;2.30;;;11.90;99.90;;;;;;5052449;28;20095;-75
2022/11/02 09:02:36;;;;;;;11.30;2.10;;;11.90;99.90;;;;;;5052893;28;20286;-74
2022/11/02 09:05:02;;;;;;;10.17;2.00;;;11.90;99.90;;;;;;5051556;28;20362;-74
2022/11/02 09:07:28;;;;;;;11.90;3.00;;;12.00;99.90;;;;;;5068777;28;20045;-74
2022/11/02 09:09:54;;;;;;;10.97;2.10;;;12.00;99.90;;;;;;5052369;28;20044;-73
2022/11/02 09:12:20;;;;;;;11.43;2.60;;;12.00;99.90;;;;;;5052707;28;20049;-73
2022/11/02 09:14:46;;;;;;;12.30;2.20;;;12.00;99.90;;;;;;5052599;28;20328;-74
2022/11/02 09:17:12;;;;;;;16.33;3.60;;;12.00;99.90;;;;;;5051134;28;20052;-74
2022/11/02 09:19:37;;;;;;;12.97;2.23;;;12.00;99.90;;;;;;5052683;28;20049;-75
2022/11/02 09:22:03;;;;;;;12.40;3.17;;;12.10;99.90;;;;;;5052351;28;20400;-74
2022/11/02 09:24:29;;;;;;;14.03;2.90;;;12.10;99.90;;;;;;5052633;28;20045;-74
2022/11/02 09:26:54;;;;;;;12.67;3.07;;;12.10;99.90;;;;;;5052823;28;20045;-73
2022/11/02 09:29:20;;;;;;;20.50;2.97;;;12.20;99.90;;;;;;5052305;28;20047;-74
2022/11/02 09:31:47;;;;;;;13.23;2.20;;;12.20;99.90;;;;;;5052678;28;20061;-72
2022/11/02 09:34:14;;;;;;;16.73;3.13;;;12.20;99.90;;;;;;5051032;28;20053;-74
2022/11/02 09:36:40;;;;;;;12.60;2.63;;;12.30;99.90;;;;;;5052540;28;20284;-74
2022/11/02 09:39:06;;;;;;;11.23;1.90;;;12.40;99.90;;;;;;5052206;28;20293;-75
2022/11/02 09:41:44;;;;;;;11.20;2.57;;;12.50;99.90;;;;;;5054744;28;20051;-75
2022/11/02 09:44:24;;;;;;;14.90;2.23;;;12.60;99.90;;;;;;5055925;28;20056;-75
2022/11/02 09:46:50;;;;;;;8.47;1.90;;;12.70;99.90;;;;;;5055820;28;20279;-74
2022/11/02 09:49:22;;;;;;;14.00;2.03;;;12.80;99.90;;;;;;5055714;28;20302;-82
2022/11/02 09:51:50;;;;;;;11.20;2.37;;;12.90;99.90;;;;;;5055956;28;20060;-77
2022/11/02 09:54:48;;;;;;;13.90;2.50;;;12.90;99.90;;;;;;5055729;28;20287;-78
2022/11/02 09:57:19;;;;;;;8.33;2.80;;;12.90;99.90;;;;;;5060260;28;20279;-77
2022/11/02 09:59:45;;;;;;;11.50;2.20;;;12.90;99.90;;;;;;5075938;28;20635;-77
2022/11/02 10:02:28;;;;;;;13.17;2.53;;;12.90;99.90;;;;;;5057723;28;20290;-77
2022/11/02 10:05:03;;;;;;;12.30;2.33;;;12.90;99.90;;;;;;5075760;28;20056;-81
2022/11/02 10:07:35;;;;;;;11.95;2.22;;;12.90;99.90;;;;;;5075729;28;20270;-83
2022/11/02 10:10:21;;;;;;;13.90;3.03;;;13.00;99.90;;;;;;5075064;28;20484;-77
2022/11/02 10:13:01;;;;;;;8.97;2.23;;;13.00;99.90;;;;;;5075396;28;20682;-85
2022/11/02 10:16:17;;;;;;;13.13;2.37;;;13.00;99.90;;;;;;5076124;28;20297;-79
2022/11/02 10:18:48;;;;;;;15.75;2.55;;;13.00;99.90;;;;;;5016404;28;20296;-82
2022/11/02 10:21:19;;;;;;;17.00;2.73;;;13.00;99.90;;;;;;5067389;28;20064;-81
2022/11/02 10:23:54;;;;;;;12.33;2.83;;;13.00;99.90;;;;;;5075424;28;20274;-83
2022/11/02 10:26:28;;;;;;;12.15;2.13;;;13.00;99.90;;;;;;5073885;28;20298;-81
2022/11/02 10:29:05;;;;;;;11.87;2.47;;;12.90;99.90;;;;;;5074056;28;20044;-81
2022/11/02 10:31:34;;;;;;;17.43;3.13;;;12.90;99.90;;;;;;5075031;28;20310;-82
2022/11/02 10:34:10;;;;;;;11.47;2.50;;;12.90;99.90;;;;;;5075139;28;20279;-81
2022/11/02 10:37:20;;;;;;;13.87;2.83;;;12.80;99.90;;;;;;5074280;28;20370;-79
2022/11/02 10:39:57;;;;;;;12.57;2.10;;;12.80;99.90;;;;;;5075204;28;20286;-82
2022/11/02 10:42:50;;;;;;;13.50;2.60;;;12.80;99.90;;;;;;5073486;28;20283;-79
2022/11/02 10:45:40;;;;;;;10.70;1.90;;;12.80;99.90;;;;;;5074764;28;20325;-77
2022/11/02 10:48:38;;;;;;;8.17;1.83;;;12.90;99.90;;;;;;5074439;28;20393;-78
2022/11/02 10:51:11;;;;;;;10.57;2.10;;;12.90;99.90;;;;;;5073559;28;20377;-74
2022/11/02 10:53:41;;;;;;;12.27;2.57;;;12.90;99.90;;;;;;5074705;28;20278;-74
2022/11/02 10:56:15;;;;;;;11.67;1.90;;;13.00;99.90;;;;;;5074410;28;20350;-76
2022/11/02 10:59:02;;;;;;;14.57;3.00;;;13.00;99.90;;;;;;5073975;28;20295;-76
2022/11/02 11:01:29;;;;;;;13.50;2.53;;;13.00;99.90;;;;;;5074434;28;20631;-76
2022/11/02 11:03:59;;;;;;;11.10;2.17;;;13.00;99.90;;;;;;5074488;28;20283;-74
2022/11/02 11:06:40;;;;;;;14.63;3.03;;;13.00;99.90;;;;;;5074183;28;20298;-72
2022/11/02 11:09:18;;;;;;;9.83;2.53;;;13.00;99.90;;;;;;5073993;28;20299;-80
2022/11/02 11:12:19;;;;;;;8.93;2.00;;;12.90;99.90;;;;;;5074311;28;20322;-79
2022/11/02 11:14:56;;;;;;;11.73;2.30;;;12.90;99.90;;;;;;5074288;28;20283;-79
2022/11/02 11:17:33;;;;;;;13.63;2.40;;;12.90;99.90;;;;;;5056352;28;20755;-79
2022/11/02 11:19:59;;;;;;;12.20;2.30;;;13.00;99.90;;;;;;5073944;28;20263;-79
2022/11/02 11:22:31;;;;;;;9.67;2.03;;;13.00;99.90;;;;;;5073341;28;20279;-80
2022/11/02 11:25:22;;;;;;;8.57;1.50;;;13.00;99.90;;;;;;5070725;28;20630;-81
2022/11/02 11:27:48;;;;;;;10.30;2.63;;;13.00;99.90;;;;;;5072947;28;20754;-81
2022/11/02 11:30:35;;;;;;;9.77;1.90;;;13.00;99.90;;;;;;5072685;28;20299;-80
2022/11/02 11:33:04;;;;;;;9.57;2.00;;;13.00;99.90;;;;;;5073440;28;20786;-80
2022/11/02 11:35:38;;;;;;;9.63;2.17;;;13.00;99.90;;;;;;5073531;28;20283;-82
2022/11/02 11:38:14;;;;;;;11.23;2.00;;;13.00;99.90;;;;;;5073917;28;20333;-77
2022/11/02 11:40:44;;;;;;;10.83;2.17;;;13.00;99.90;;;;;;5074004;28;20307;-76
2022/11/02 11:43:14;;;;;;;13.73;2.93;;;13.00;99.90;;;;;;5073824;28;20677;-73
2022/11/02 11:46:06;;;;;;;13.00;3.97;;;13.00;99.90;;;;;;5073905;28;20285;-75
2022/11/02 11:48:41;;;;;;;10.97;3.40;;;13.00;99.90;;;;;;5073269;28;20829;-75
2022/11/02 11:51:31;;;;;;;11.70;3.30;;;13.00;99.90;;;;;;5073609;28;20294;-75
2022/11/02 11:54:21;;;;;;;11.87;4.03;;;13.00;99.90;;;;;;5072635;28;20763;-75
2022/11/02 11:56:49;;;;;;;13.57;4.00;;;13.00;99.90;;;;;;5073512;28;20322;-74
2022/11/02 11:59:30;;;;;;;17.10;3.70;;;13.00;99.90;;;;;;5073241;28;20279;-76
2022/11/02 12:02:00;;;;;;;9.23;2.67;;;13.10;99.90;;;;;;5073436;28;20328;-75
2022/11/02 12:04:28;;;;;;;15.10;4.20;;;13.10;99.90;;;;;;5072561;28;20328;-74
2022/11/02 12:07:18;;;;;;;14.60;2.97;;;13.00;99.90;;;;;;5073445;28;20282;-75
2022/11/02 12:09:49;;;;;;;11.77;2.70;;;13.00;99.90;;;;;;5073616;28;20386;-70
2022/11/02 12:12:47;;;;;;;11.80;3.60;;;13.00;99.90;;;;;;5073169;28;20290;-72
2022/11/02 12:15:38;;;;;;;12.03;2.13;;;13.00;99.90;;;;;;5073382;28;20288;-75
2022/11/02 12:18:13;;;;;;;13.07;3.23;;;13.00;99.90;;;;;;5073234;28;20278;-75
2022/11/02 12:21:07;;;;;;;11.82;2.35;;;13.00;99.90;;;;;;5072957;28;20594;-75
2022/11/02 12:23:54;;;;;;;11.80;2.00;;;13.10;99.90;;;;;;5056542;28;20084;-75
2022/11/02 12:26:32;;;;;;;12.07;3.90;;;13.20;99.90;;;;;;5073013;28;20290;-73
2022/11/02 12:29:14;;;;;;;15.50;2.80;;;13.30;99.90;;;;;;5062250;28;20794;-79
2022/11/02 12:31:44;;;;;;;14.40;3.47;;;13.30;99.90;;;;;;5065274;28;20322;-80
2022/11/02 12:34:43;;;;;;;16.60;3.33;;;13.40;99.90;;;;;;5066606;28;20286;-80
2022/11/02 12:37:19;;;;;;;18.47;6.80;;;13.40;99.90;;;;;;5073132;28;20283;-78
2022/11/02 12:39:53;;;;;;;15.47;3.30;;;13.50;99.90;;;;;;5072726;28;20275;-81
2022/11/02 12:42:29;;;;;;;12.40;3.28;;;13.50;99.90;;;;;;5072462;28;20298;-79
2022/11/02 12:45:18;;;;;;;14.30;4.23;;;13.50;99.90;;;;;;5073181;28;20108;-75
2022/11/02 12:47:47;;;;;;;10.40;2.90;;;13.50;99.90;;;;;;5106275;28;20290;-75
2022/11/02 12:50:43;;;;;;;13.00;3.03;;;13.50;99.90;;;;;;5072761;28;20778;-75
2022/11/02 12:53:20;;;;;;;14.77;4.63;;;13.50;99.90;;;;;;5073099;28;20311;-75
2022/11/02 12:55:50;;;;;;;14.43;3.07;;;13.50;99.90;;;;;;5073081;28;20318;-75
2022/11/02 12:58:23;;;;;;;15.40;3.80;;;13.50;99.90;;;;;;5073178;28;20275;-81
2022/11/02 13:00:57;;;;;;;11.83;2.90;;;13.50;99.90;;;;;;5105852;28;20301;-79
2022/11/02 13:04:17;;;;;;;13.53;2.53;;;13.50;99.90;;;;;;5072640;28;20758;-80
2022/11/02 13:06:47;;;;;;;11.07;2.37;;;13.50;99.90;;;;;;5049054;28;20313;-83
2022/11/02 13:09:17;;;;;;;13.07;2.97;;;13.60;99.90;;;;;;5065293;28;20318;-86
2022/11/02 13:11:49;;;;;;;12.63;2.40;;;13.60;99.90;;;;;;5072478;28;20283;-74
2022/11/02 13:14:18;;;;;;;10.77;1.97;;;13.60;99.90;;;;;;5073245;28;20370;-74
2022/11/02 13:16:53;;;;;;;16.10;3.00;;;13.60;99.90;;;;;;5074932;28;20294;-72